createdAt,value
2019-03-09T00:02:18.084Z,8.50
2019-03-09T00:04:46.467Z,8.40
2019-03-09T00:07:14.868Z,8.30
2019-03-09T00:09:43.512Z,8.20
2019-03-09T00:12:11.900Z,8.20
2019-03-09T00:14:40.270Z,8.10
2019-03-09T00:17:08.884Z,8.10
2019-03-09T00:19:37.260Z,8.00
2019-03-09T00:22:05.636Z,8.00
2019-03-09T00:24:35.655Z,8.00
2019-03-09T00:27:05.667Z,8.00
2019-03-09T00:29:38.408Z,7.90
2019-03-09T00:32:08.410Z,7.90
2019-03-09T00:34:37.075Z,7.90
2019-03-09T00:37:05.456Z,7.90
2019-03-09T00:39:33.836Z,7.90
2019-03-09T00:42:02.219Z,7.90
2019-03-09T00:44:30.595Z,7.80
2019-03-09T00:46:58.977Z,7.80
2019-03-09T00:49:27.527Z,7.80
2019-03-09T00:51:55.904Z,7.70
2019-03-09T00:54:24.288Z,7.70
2019-03-09T00:56:52.659Z,7.70
2019-03-09T00:59:21.044Z,7.70
2019-03-09T01:01:49.411Z,7.70
2019-03-09T01:04:18.096Z,7.60
2019-03-09T01:06:46.475Z,7.70
2019-03-09T01:09:14.919Z,7.70
2019-03-09T01:11:43.304Z,7.70
2019-03-09T01:14:11.690Z,7.70
2019-03-09T01:16:40.064Z,7.60
2019-03-09T01:19:08.452Z,7.60
2019-03-09T01:21:36.819Z,7.60
2019-03-09T01:24:05.199Z,7.60
2019-03-09T01:26:33.567Z,7.60
2019-03-09T01:29:01.956Z,7.60
2019-03-09T01:31:30.324Z,7.60
2019-03-09T01:33:58.717Z,7.60
2019-03-09T01:36:27.083Z,7.60
2019-03-09T01:38:55.479Z,7.60
2019-03-09T01:41:23.859Z,7.60
2019-03-09T01:43:52.240Z,7.60
2019-03-09T01:46:20.619Z,7.60
2019-03-09T01:48:49.000Z,7.60
2019-03-09T01:51:17.383Z,7.60
2019-03-09T01:53:45.756Z,7.60
2019-03-09T01:56:14.159Z,7.60
2019-03-09T01:58:42.522Z,7.60
2019-03-09T02:01:10.895Z,7.70
2019-03-09T02:03:39.284Z,7.70
2019-03-09T02:06:07.724Z,7.80
2019-03-09T02:08:36.099Z,7.80
2019-03-09T02:11:04.553Z,7.80
2019-03-09T02:13:32.923Z,7.80
2019-03-09T02:16:01.312Z,7.70
2019-03-09T02:18:29.677Z,7.80
2019-03-09T02:20:58.064Z,7.80
2019-03-09T02:23:26.436Z,7.80
2019-03-09T02:25:54.819Z,7.80
2019-03-09T02:28:23.204Z,7.80
2019-03-09T02:30:51.645Z,7.80
2019-03-09T02:33:20.028Z,7.80
2019-03-09T02:35:48.450Z,7.80
2019-03-09T02:38:18.522Z,7.80
2019-03-09T02:40:46.888Z,7.80
2019-03-09T02:43:15.257Z,7.90
2019-03-09T02:45:43.672Z,7.90
2019-03-09T02:48:12.036Z,7.80
2019-03-09T02:50:42.057Z,7.80
2019-03-09T02:53:10.688Z,7.80
2019-03-09T02:55:39.063Z,7.90
2019-03-09T02:58:07.436Z,7.90
2019-03-09T03:00:37.461Z,7.90
2019-03-09T03:03:07.208Z,7.90
2019-03-09T03:05:35.592Z,7.90
2019-03-09T03:08:03.980Z,8.00
2019-03-09T03:10:32.364Z,8.00
2019-03-09T03:13:00.737Z,8.00
2019-03-09T03:15:35.413Z,8.00
2019-03-09T03:18:04.058Z,8.10
2019-03-09T03:20:32.502Z,8.00
2019-03-09T03:23:00.888Z,8.10
2019-03-09T03:25:29.269Z,8.10
2019-03-09T03:27:57.738Z,8.10
2019-03-09T03:30:26.108Z,8.10
2019-03-09T03:32:56.361Z,8.10
2019-03-09T03:35:24.730Z,8.20
2019-03-09T03:37:53.112Z,8.10
2019-03-09T03:40:21.480Z,8.10
2019-03-09T03:42:49.865Z,8.20
2019-03-09T03:45:18.234Z,8.20
2019-03-09T03:47:46.623Z,8.20
2019-03-09T03:50:15.239Z,8.20
2019-03-09T03:52:43.609Z,8.20
2019-03-09T03:55:12.004Z,8.30
2019-03-09T03:57:40.363Z,8.20
2019-03-09T04:00:14.025Z,8.30
2019-03-09T04:02:42.569Z,8.30
2019-03-09T04:05:11.009Z,8.30
2019-03-09T04:07:40.830Z,8.30
2019-03-09T04:10:11.489Z,8.40
2019-03-09T04:12:39.978Z,8.40
2019-03-09T04:15:08.788Z,8.50
2019-03-09T04:17:37.173Z,8.40
2019-03-09T04:20:12.622Z,8.50
2019-03-09T04:22:40.996Z,8.50
2019-03-09T04:25:09.440Z,8.60
2019-03-09T04:27:37.815Z,8.60
2019-03-09T04:30:11.755Z,8.60
2019-03-09T04:32:40.201Z,8.60
2019-03-09T04:35:08.659Z,8.60
2019-03-09T04:37:37.027Z,8.70
2019-03-09T04:40:11.253Z,8.70
2019-03-09T04:42:39.612Z,8.70
2019-03-09T04:45:10.060Z,8.80
2019-03-09T04:47:38.428Z,8.90
2019-03-09T04:50:14.583Z,8.90
2019-03-09T04:52:42.955Z,8.90
2019-03-09T04:55:11.583Z,9.00
2019-03-09T04:57:39.959Z,9.00
2019-03-09T05:00:13.199Z,8.90
2019-03-09T05:02:41.583Z,9.00
2019-03-09T05:05:11.015Z,9.00
2019-03-09T05:07:42.240Z,9.00
2019-03-09T05:10:13.684Z,9.00
2019-03-09T05:12:43.593Z,9.10
2019-03-09T05:15:13.983Z,9.10
2019-03-09T05:17:42.364Z,9.10
2019-03-09T05:20:10.731Z,9.10
2019-03-09T05:22:39.099Z,9.10
2019-03-09T05:25:07.547Z,9.10
2019-03-09T05:27:55.261Z,9.10
2019-03-09T05:30:41.233Z,9.10
2019-03-09T05:33:09.679Z,9.20
2019-03-09T05:35:38.099Z,9.20
2019-03-09T05:38:06.516Z,9.10
2019-03-09T05:40:34.884Z,9.10
2019-03-09T05:43:03.337Z,9.10
2019-03-09T05:45:31.767Z,9.20
2019-03-09T05:48:00.152Z,9.20
2019-03-09T05:50:28.527Z,9.20
2019-03-09T05:53:11.800Z,9.20
2019-03-09T05:55:40.170Z,9.20
2019-03-09T05:58:08.551Z,9.10
2019-03-09T06:00:38.308Z,9.20
2019-03-09T06:03:06.676Z,9.20
2019-03-09T06:05:43.567Z,9.20
2019-03-09T06:08:11.935Z,9.20
2019-03-09T06:10:40.319Z,9.30
2019-03-09T06:13:08.712Z,9.30
2019-03-09T06:15:37.075Z,9.30
2019-03-09T06:18:06.410Z,9.30
2019-03-09T06:20:35.012Z,9.30
2019-03-09T06:23:03.468Z,9.30
2019-03-09T06:25:32.087Z,9.40
2019-03-09T06:28:00.464Z,9.40
2019-03-09T06:30:28.833Z,9.40
2019-03-09T06:33:24.511Z,9.40
2019-03-09T06:36:21.672Z,9.50
2019-03-09T06:38:58.611Z,9.50
2019-03-09T06:41:39.297Z,9.50
2019-03-09T06:44:07.675Z,9.60
2019-03-09T06:46:36.047Z,9.60
2019-03-09T06:49:04.595Z,9.60
2019-03-09T06:51:32.979Z,9.70
2019-03-09T06:54:01.361Z,9.70
2019-03-09T06:56:29.739Z,9.70
2019-03-09T06:58:58.115Z,9.70
2019-03-09T07:01:26.496Z,9.80
2019-03-09T07:03:54.867Z,9.80
2019-03-09T07:06:23.237Z,9.80
2019-03-09T07:08:51.633Z,9.80
2019-03-09T07:11:20.002Z,9.80
2019-03-09T07:13:52.705Z,9.90
2019-03-09T07:16:18.624Z,9.90
2019-03-09T07:18:47.070Z,9.90
2019-03-09T07:21:15.444Z,9.90
2019-03-09T07:23:44.054Z,9.90
2019-03-09T07:26:12.439Z,9.90
2019-03-09T07:28:40.816Z,9.90
2019-03-09T07:31:09.203Z,10.00
2019-03-09T07:33:37.631Z,10.00
2019-03-09T07:36:06.015Z,10.00
2019-03-09T07:38:34.403Z,10.10
2019-03-09T07:41:02.788Z,10.10
2019-03-09T07:43:31.167Z,10.20
2019-03-09T07:45:59.551Z,10.30
2019-03-09T07:48:27.931Z,10.20
2019-03-09T07:50:56.304Z,10.20
2019-03-09T07:53:24.696Z,10.30
2019-03-09T07:55:53.079Z,10.30
2019-03-09T07:58:21.478Z,10.40
2019-03-09T08:00:49.847Z,10.30
2019-03-09T08:03:18.236Z,10.50
2019-03-09T08:05:46.619Z,10.50
2019-03-09T08:08:14.999Z,10.50
2019-03-09T08:10:43.391Z,10.50
2019-03-09T08:13:11.827Z,10.50
2019-03-09T08:15:40.220Z,10.50
2019-03-09T08:18:08.595Z,10.60
2019-03-09T08:20:36.988Z,10.50
2019-03-09T08:23:05.376Z,10.60
2019-03-09T08:25:33.768Z,10.70
2019-03-09T08:28:02.146Z,10.70
2019-03-09T08:30:30.535Z,10.80
2019-03-09T08:32:58.925Z,10.80
2019-03-09T08:35:27.305Z,10.90
2019-03-09T08:37:55.692Z,10.90
2019-03-09T08:40:24.100Z,10.90
2019-03-09T08:42:52.454Z,10.90
2019-03-09T08:45:21.509Z,11.00
2019-03-09T08:47:52.701Z,11.00
2019-03-09T08:50:21.611Z,11.10
2019-03-09T08:52:50.063Z,11.10
2019-03-09T08:55:18.882Z,11.10
2019-03-09T08:57:47.293Z,11.10
2019-03-09T09:00:21.132Z,11.10
2019-03-09T09:02:49.507Z,11.00
2019-03-09T09:05:17.892Z,11.10
2019-03-09T09:07:46.277Z,11.10
2019-03-09T09:10:14.661Z,11.10
2019-03-09T09:12:45.291Z,11.10
2019-03-09T09:15:15.473Z,11.10
2019-03-09T09:17:43.862Z,11.20
2019-03-09T09:20:20.661Z,11.20
2019-03-09T09:22:49.061Z,11.20
2019-03-09T09:25:17.441Z,11.20
2019-03-09T09:27:45.828Z,11.20
2019-03-09T09:30:22.487Z,11.10
2019-03-09T09:32:50.965Z,11.20
2019-03-09T09:35:19.620Z,11.20
2019-03-09T09:37:48.354Z,11.20
2019-03-09T09:40:22.343Z,11.20
2019-03-09T09:42:50.873Z,11.30
2019-03-09T09:45:19.511Z,11.30
2019-03-09T09:47:47.905Z,11.40
2019-03-09T09:50:16.994Z,11.50
2019-03-09T09:52:45.441Z,11.40
2019-03-09T09:55:15.572Z,11.40
2019-03-09T09:57:44.020Z,11.40
2019-03-09T10:00:15.213Z,11.40
2019-03-09T10:02:43.597Z,11.50
2019-03-09T10:05:12.707Z,11.50
2019-03-09T10:07:41.109Z,11.50
2019-03-09T10:10:22.405Z,11.60
2019-03-09T10:12:50.796Z,11.60
2019-03-09T10:15:21.425Z,11.60
2019-03-09T10:17:49.809Z,11.70
2019-03-09T10:20:18.194Z,11.80
2019-03-09T10:22:46.565Z,11.90
2019-03-09T10:25:14.947Z,11.90
2019-03-09T10:27:43.323Z,11.90
2019-03-09T10:30:19.416Z,11.90
2019-03-09T10:32:47.868Z,11.90
2019-03-09T10:35:16.315Z,11.80
2019-03-09T10:37:44.695Z,11.80
2019-03-09T10:40:14.525Z,11.80
2019-03-09T10:42:42.900Z,11.90
2019-03-09T10:45:17.036Z,11.90
2019-03-09T10:47:45.410Z,12.00
2019-03-09T10:50:15.027Z,12.00
2019-03-09T10:52:43.424Z,12.10
2019-03-09T10:55:14.513Z,12.00
2019-03-09T10:57:42.897Z,12.00
2019-03-09T11:00:14.712Z,12.00
2019-03-09T11:02:43.088Z,12.20
2019-03-09T11:05:12.251Z,12.20
2019-03-09T11:07:40.626Z,12.30
2019-03-09T11:10:09.557Z,12.50
2019-03-09T11:12:38.001Z,12.60
2019-03-09T11:15:08.034Z,12.40
2019-03-09T11:17:36.409Z,12.40
2019-03-09T11:20:10.535Z,12.50
2019-03-09T11:22:38.913Z,12.60
2019-03-09T11:25:08.233Z,12.80
2019-03-09T11:27:36.615Z,13.90
2019-03-09T11:30:14.191Z,14.60
2019-03-09T11:32:42.575Z,14.30
2019-03-09T11:35:11.036Z,14.70
2019-03-09T11:37:39.414Z,14.40
2019-03-09T11:40:07.791Z,14.40
2019-03-09T11:42:36.189Z,14.50
2019-03-09T11:45:08.208Z,14.00
2019-03-09T11:47:36.611Z,13.60
2019-03-09T11:50:07.727Z,13.10
2019-03-09T11:52:36.105Z,13.20
2019-03-09T11:55:06.639Z,13.80
2019-03-09T11:57:35.031Z,13.50
2019-03-09T12:00:05.251Z,13.50
2019-03-09T12:02:38.961Z,13.30
2019-03-09T12:05:04.112Z,13.10
2019-03-09T12:07:32.508Z,12.90
2019-03-09T12:10:00.899Z,12.70
2019-03-09T12:12:29.310Z,12.80
2019-03-09T12:14:57.692Z,12.70
2019-03-09T12:17:26.080Z,12.50
2019-03-09T12:19:54.467Z,12.60
2019-03-09T12:22:22.846Z,12.60
2019-03-09T12:24:52.479Z,12.40
2019-03-09T12:27:20.881Z,12.40
2019-03-09T12:29:49.255Z,12.70
2019-03-09T12:32:17.648Z,12.50
2019-03-09T12:34:46.033Z,12.50
2019-03-09T12:37:14.421Z,12.60
2019-03-09T12:39:42.811Z,12.70
2019-03-09T12:42:11.191Z,12.60
2019-03-09T12:44:39.576Z,12.50
2019-03-09T12:47:07.951Z,12.40
2019-03-09T12:49:36.332Z,12.30
2019-03-09T12:52:04.726Z,12.20
2019-03-09T12:54:33.103Z,12.00
2019-03-09T12:57:01.495Z,12.00
2019-03-09T12:59:29.880Z,12.00
2019-03-09T13:01:58.272Z,12.10
2019-03-09T13:04:26.652Z,12.10
2019-03-09T13:06:55.032Z,12.00
2019-03-09T13:09:23.421Z,11.80
2019-03-09T13:11:51.807Z,11.70
2019-03-09T13:14:20.184Z,11.50
2019-03-09T13:16:48.561Z,11.40
2019-03-09T13:19:16.953Z,11.00
2019-03-09T13:21:45.412Z,10.80
2019-03-09T13:24:13.800Z,10.80
2019-03-09T13:26:42.187Z,10.90
2019-03-09T13:29:10.577Z,10.80
2019-03-09T13:31:38.955Z,10.70
2019-03-09T13:34:07.347Z,10.60
2019-03-09T13:36:35.724Z,10.90
2019-03-09T13:39:05.975Z,10.90
2019-03-09T13:41:34.370Z,10.90
2019-03-09T13:44:02.744Z,10.90
2019-03-09T13:46:31.374Z,11.40
2019-03-09T13:48:59.756Z,12.80
2019-03-09T13:51:28.148Z,12.40
2019-03-09T13:53:56.769Z,12.00
2019-03-09T13:56:25.164Z,11.80
2019-03-09T13:58:53.543Z,11.90
2019-03-09T14:01:21.942Z,11.90
2019-03-09T14:03:50.327Z,11.60
2019-03-09T14:06:18.717Z,11.40
2019-03-09T14:08:47.099Z,11.60
2019-03-09T14:11:15.483Z,13.00
2019-03-09T14:13:43.883Z,13.70
2019-03-09T14:16:12.267Z,13.20
2019-03-09T14:18:40.657Z,12.70
2019-03-09T14:21:09.033Z,12.20
2019-03-09T14:23:37.417Z,11.60
2019-03-09T14:26:05.819Z,11.50
2019-03-09T14:28:34.200Z,11.40
2019-03-09T14:31:02.596Z,11.30
2019-03-09T14:33:30.980Z,11.40
2019-03-09T14:35:59.376Z,11.40
2019-03-09T14:38:27.755Z,11.20
2019-03-09T14:40:56.148Z,11.00
2019-03-09T14:43:24.543Z,11.10
2019-03-09T14:45:52.922Z,11.20
2019-03-09T14:48:21.321Z,11.40
2019-03-09T14:50:49.932Z,11.60
2019-03-09T14:53:18.323Z,11.60
2019-03-09T14:55:46.708Z,11.60
2019-03-09T14:58:15.104Z,12.00
2019-03-09T15:00:43.484Z,12.90
2019-03-09T15:03:11.860Z,12.90
2019-03-09T15:05:40.260Z,13.10
2019-03-09T15:08:08.645Z,12.60
2019-03-09T15:10:37.024Z,12.30
2019-03-09T15:13:05.420Z,12.10
2019-03-09T15:15:33.809Z,11.90
2019-03-09T15:18:02.189Z,11.70
2019-03-09T15:20:30.570Z,11.60
2019-03-09T15:22:58.978Z,11.60
2019-03-09T15:25:27.352Z,11.60
2019-03-09T15:27:55.744Z,11.50
2019-03-09T15:30:24.128Z,11.30
2019-03-09T15:32:52.517Z,11.00
2019-03-09T15:35:20.897Z,10.80
2019-03-09T15:37:49.424Z,10.80
2019-03-09T15:40:18.749Z,10.90
2019-03-09T15:42:47.219Z,10.90
2019-03-09T15:45:20.448Z,10.90
2019-03-09T15:47:48.888Z,10.50
2019-03-09T15:50:18.504Z,10.40
2019-03-09T15:52:47.041Z,10.60
2019-03-09T15:55:15.506Z,11.00
2019-03-09T15:57:44.027Z,11.30
2019-03-09T16:00:26.107Z,11.40
2019-03-09T16:02:54.484Z,11.50
2019-03-09T16:05:22.873Z,11.50
2019-03-09T16:07:51.252Z,12.10
2019-03-09T16:10:20.976Z,12.50
2019-03-09T16:12:49.370Z,13.00
2019-03-09T16:15:18.093Z,13.00
2019-03-09T16:17:46.489Z,13.10
2019-03-09T16:20:22.100Z,13.10
2019-03-09T16:22:50.488Z,13.00
2019-03-09T16:25:18.955Z,12.50
2019-03-09T16:27:47.354Z,12.20
2019-03-09T16:30:18.553Z,12.20
2019-03-09T16:32:47.005Z,12.30
2019-03-09T16:35:15.400Z,12.50
2019-03-09T16:37:44.516Z,12.70
2019-03-09T16:40:17.216Z,12.80
2019-03-09T16:42:45.607Z,12.70
2019-03-09T16:45:14.425Z,12.40
2019-03-09T16:47:42.807Z,12.20
2019-03-09T16:50:13.324Z,11.80
2019-03-09T16:52:41.704Z,11.60
2019-03-09T16:55:10.320Z,11.40
2019-03-09T16:57:38.843Z,11.30
2019-03-09T17:00:15.629Z,11.20
2019-03-09T17:02:44.352Z,11.10
2019-03-09T17:05:13.189Z,11.00
2019-03-09T17:07:41.743Z,10.90
2019-03-09T17:10:11.663Z,10.90
2019-03-09T17:12:40.052Z,11.00
2019-03-09T17:15:14.411Z,11.00
2019-03-09T17:17:42.961Z,10.80
2019-03-09T17:20:13.688Z,10.70
2019-03-09T17:22:42.068Z,10.70
2019-03-09T17:25:10.637Z,10.70
2019-03-09T17:27:39.016Z,10.70
2019-03-09T17:30:18.435Z,10.60
2019-03-09T17:32:46.833Z,10.50
2019-03-09T17:35:15.269Z,10.50
2019-03-09T17:37:43.652Z,10.60
2019-03-09T17:40:16.779Z,10.50
2019-03-09T17:42:45.392Z,10.40
2019-03-09T17:45:19.084Z,10.30
2019-03-09T17:47:47.457Z,10.30
2019-03-09T17:50:15.843Z,10.20
2019-03-09T17:52:44.219Z,10.20
2019-03-09T17:55:12.876Z,10.20
2019-03-09T17:57:41.248Z,10.10
2019-03-09T18:00:25.520Z,10.00
2019-03-09T18:02:53.903Z,10.00
2019-03-09T18:05:22.288Z,9.90
2019-03-09T18:07:50.662Z,9.90
2019-03-09T18:10:27.995Z,9.80
2019-03-09T18:12:56.363Z,9.70
2019-03-09T18:15:24.748Z,9.60
2019-03-09T18:17:53.123Z,9.50
2019-03-09T18:20:21.503Z,9.40
2019-03-09T18:22:49.883Z,9.30
2019-03-09T18:25:18.301Z,9.20
2019-03-09T18:27:46.697Z,9.20
2019-03-09T18:30:15.132Z,9.10
2019-03-09T18:32:43.515Z,9.00
2019-03-09T18:35:12.165Z,8.90
2019-03-09T18:37:40.553Z,9.00
2019-03-09T18:40:13.677Z,9.20
2019-03-09T18:42:42.056Z,9.20
2019-03-09T18:45:18.373Z,9.40
2019-03-09T18:47:46.744Z,9.60
2019-03-09T18:50:15.248Z,9.60
2019-03-09T18:52:43.644Z,9.60
2019-03-09T18:55:12.088Z,9.50
2019-03-09T18:57:40.462Z,9.40
2019-03-09T19:00:14.527Z,9.30
2019-03-09T19:02:42.903Z,9.20
2019-03-09T19:05:11.513Z,9.20
2019-03-09T19:07:39.964Z,9.20
2019-03-09T19:10:11.419Z,9.20
2019-03-09T19:12:39.824Z,9.10
2019-03-09T19:15:11.304Z,9.00
2019-03-09T19:17:39.671Z,9.00
2019-03-09T19:20:10.987Z,9.00
2019-03-09T19:22:39.357Z,9.00
2019-03-09T19:25:10.078Z,8.90
2019-03-09T19:27:38.532Z,8.90
2019-03-09T19:30:21.037Z,8.90
2019-03-09T19:32:59.595Z,8.90
2019-03-09T19:35:19.505Z,8.90
2019-03-09T19:37:47.880Z,8.90
2019-03-09T19:40:17.599Z,8.80
2019-03-09T19:42:45.967Z,8.70
2019-03-09T19:45:19.357Z,8.70
2019-03-09T19:47:47.976Z,8.60
2019-03-09T19:50:21.548Z,8.50
2019-03-09T19:52:49.940Z,8.40
2019-03-09T19:55:18.312Z,8.30
2019-03-09T19:57:46.694Z,8.20
2019-03-09T20:00:16.593Z,8.20
2019-03-09T20:02:44.980Z,8.20
2019-03-09T20:05:13.423Z,8.20
2019-03-09T20:07:41.806Z,8.20
2019-03-09T20:10:16.163Z,8.20
2019-03-09T20:12:44.551Z,8.20
2019-03-09T20:15:16.823Z,8.20
2019-03-09T20:17:45.970Z,8.20
2019-03-09T20:20:18.928Z,8.20
2019-03-09T20:22:47.305Z,8.10
2019-03-09T20:25:15.680Z,8.10
2019-03-09T20:27:44.295Z,8.10
2019-03-09T20:30:15.749Z,8.10
2019-03-09T20:32:44.136Z,8.20
2019-03-09T20:35:12.504Z,8.40
2019-03-09T20:37:40.899Z,8.50
2019-03-09T20:40:12.349Z,8.60
2019-03-09T20:42:40.722Z,8.70
2019-03-09T20:45:14.869Z,8.80
2019-03-09T20:47:43.352Z,8.80
2019-03-09T20:50:16.880Z,8.80
2019-03-09T20:52:45.252Z,8.80
2019-03-09T20:55:13.711Z,8.90
2019-03-09T20:57:42.087Z,8.90
2019-03-09T21:00:21.041Z,9.00
2019-03-09T21:02:49.648Z,9.00
2019-03-09T21:05:18.062Z,9.00
2019-03-09T21:07:46.515Z,9.00
2019-03-09T21:10:19.064Z,9.00
2019-03-09T21:12:59.275Z,8.90
2019-03-09T21:15:27.728Z,9.00
2019-03-09T21:17:56.128Z,9.00
2019-03-09T21:20:24.509Z,9.00
2019-03-09T21:22:52.891Z,9.10
2019-03-09T21:25:21.359Z,9.10
2019-03-09T21:27:49.745Z,9.10
2019-03-09T21:30:18.108Z,9.00
2019-03-09T21:32:46.492Z,9.10
2019-03-09T21:35:14.887Z,9.10
2019-03-09T21:37:43.264Z,9.10
2019-03-09T21:40:11.726Z,9.20
2019-03-09T21:42:40.112Z,9.20
2019-03-09T21:45:10.927Z,9.20
2019-03-09T21:47:39.311Z,9.30
2019-03-09T21:50:11.077Z,9.30
2019-03-09T21:52:39.467Z,9.30
2019-03-09T21:55:10.480Z,9.30
2019-03-09T21:57:38.867Z,9.40
2019-03-09T22:00:15.443Z,9.30
2019-03-09T22:02:43.836Z,9.30
2019-03-09T22:05:12.983Z,9.30
2019-03-09T22:07:41.525Z,9.30
2019-03-09T22:10:11.148Z,9.30
2019-03-09T22:12:39.542Z,9.20
2019-03-09T22:15:13.475Z,9.20
2019-03-09T22:17:41.869Z,9.20
2019-03-09T22:20:11.576Z,9.20
2019-03-09T22:22:40.041Z,9.20
2019-03-09T22:25:10.555Z,9.20
2019-03-09T22:27:40.055Z,9.10
2019-03-09T22:30:13.729Z,9.20
2019-03-09T22:32:42.103Z,9.10
2019-03-09T22:35:12.812Z,9.10
2019-03-09T22:37:41.188Z,9.10
2019-03-09T22:40:11.780Z,9.10
2019-03-09T22:42:40.215Z,9.10
2019-03-09T22:45:10.876Z,9.10
2019-03-09T22:47:39.332Z,9.10
2019-03-09T22:50:13.447Z,9.10
2019-03-09T22:52:41.825Z,9.10
2019-03-09T22:55:10.557Z,9.10
2019-03-09T22:57:38.936Z,9.10
2019-03-09T23:00:24.587Z,9.20
2019-03-09T23:02:52.982Z,9.20
2019-03-09T23:05:21.349Z,9.20
2019-03-09T23:07:49.732Z,9.20
2019-03-09T23:10:22.600Z,9.20
2019-03-09T23:12:50.975Z,9.20
2019-03-09T23:15:19.635Z,9.10
2019-03-09T23:17:48.016Z,9.10
2019-03-09T23:20:17.547Z,9.20
2019-03-09T23:22:46.089Z,9.20
2019-03-09T23:25:15.244Z,9.10
2019-03-09T23:27:43.759Z,9.10
2019-03-09T23:30:31.471Z,9.10
2019-03-09T23:32:59.843Z,9.20
2019-03-09T23:35:28.288Z,9.10
2019-03-09T23:37:56.667Z,9.10
2019-03-09T23:40:25.125Z,9.10
2019-03-09T23:42:53.779Z,9.00
2019-03-09T23:45:24.012Z,9.00
2019-03-09T23:47:52.536Z,9.10
2019-03-09T23:50:20.979Z,9.00
2019-03-09T23:52:50.224Z,9.00
2019-03-09T23:55:22.552Z,9.00
2019-03-09T23:57:49.290Z,9.00
